sensor_id;sensor_type;location;lat;lon;timestamp;pressure;altitude;pressure_sealevel;temperature;humidity
78667;BME280;67983;59.830;30.198;2023-07-02T00:00:03;99256.59;;;16.99;77.06
78667;BME280;67983;59.830;30.198;2023-07-02T00:02:34;99257.78;;;16.96;76.85
78667;BME280;67983;59.830;30.198;2023-07-02T00:05:03;99254.63;;;16.93;77.08
78667;BME280;67983;59.830;30.198;2023-07-02T00:07:30;99250.66;;;16.89;77.01
78667;BME280;67983;59.830;30.198;2023-07-02T00:09:58;99253.69;;;16.86;77.09
78667;BME280;67983;59.830;30.198;2023-07-02T00:12:26;99251.16;;;16.84;77.31
78667;BME280;67983;59.830;30.198;2023-07-02T00:14:54;99257.53;;;16.83;77.33
78667;BME280;67983;59.830;30.198;2023-07-02T00:17:21;99254.03;;;16.83;77.29
78667;BME280;67983;59.830;30.198;2023-07-02T00:19:50;99258.53;;;16.82;77.64
78667;BME280;67983;59.830;30.198;2023-07-02T00:22:17;99255.03;;;16.82;77.53
78667;BME280;67983;59.830;30.198;2023-07-02T00:24:44;99255.88;;;16.82;77.33
78667;BME280;67983;59.830;30.198;2023-07-02T00:27:12;99245.34;;;16.81;77.37
78667;BME280;67983;59.830;30.198;2023-07-02T00:29:39;99244.31;;;16.82;77.30
78667;BME280;67983;59.830;30.198;2023-07-02T00:32:08;99247.00;;;16.82;77.28
78667;BME280;67983;59.830;30.198;2023-07-02T00:34:35;99245.66;;;16.86;77.40
78667;BME280;67983;59.830;30.198;2023-07-02T00:37:02;99248.16;;;16.87;77.33
78667;BME280;67983;59.830;30.198;2023-07-02T00:39:29;99244.47;;;16.88;77.23
78667;BME280;67983;59.830;30.198;2023-07-02T00:42:00;99244.09;;;16.91;77.20
78667;BME280;67983;59.830;30.198;2023-07-02T00:44:28;99249.94;;;16.95;76.99
78667;BME280;67983;59.830;30.198;2023-07-02T00:46:55;99243.19;;;16.99;76.98
78667;BME280;67983;59.830;30.198;2023-07-02T00:49:24;99240.38;;;17.00;76.52
78667;BME280;67983;59.830;30.198;2023-07-02T00:51:51;99241.84;;;17.03;76.77
78667;BME280;67983;59.830;30.198;2023-07-02T00:54:18;99244.16;;;17.06;76.40
78667;BME280;67983;59.830;30.198;2023-07-02T00:56:47;99233.44;;;17.06;75.94
78667;BME280;67983;59.830;30.198;2023-07-02T00:59:16;99229.75;;;17.07;76.03
78667;BME280;67983;59.830;30.198;2023-07-02T01:01:42;99228.91;;;17.07;75.97
78667;BME280;67983;59.830;30.198;2023-07-02T01:04:17;99226.88;;;17.09;76.16
78667;BME280;67983;59.830;30.198;2023-07-02T01:06:45;99228.75;;;17.08;75.64
78667;BME280;67983;59.830;30.198;2023-07-02T01:09:12;99210.16;;;17.07;75.36
78667;BME280;67983;59.830;30.198;2023-07-02T01:11:43;99216.91;;;17.02;75.04
78667;BME280;67983;59.830;30.198;2023-07-02T01:14:14;99217.91;;;17.01;75.41
78667;BME280;67983;59.830;30.198;2023-07-02T01:16:44;99220.59;;;17.01;74.98
78667;BME280;67983;59.830;30.198;2023-07-02T01:19:18;99222.59;;;16.99;74.73
78667;BME280;67983;59.830;30.198;2023-07-02T01:21:48;99218.25;;;16.98;74.39
78667;BME280;67983;59.830;30.198;2023-07-02T01:24:16;99212.59;;;16.93;74.25
78667;BME280;67983;59.830;30.198;2023-07-02T01:26:45;99218.31;;;16.90;73.96
78667;BME280;67983;59.830;30.198;2023-07-02T01:29:14;99219.88;;;16.85;73.55
78667;BME280;67983;59.830;30.198;2023-07-02T01:31:41;99220.38;;;16.80;73.34
78667;BME280;67983;59.830;30.198;2023-07-02T01:34:08;99212.91;;;16.76;73.58
78667;BME280;67983;59.830;30.198;2023-07-02T01:36:35;99220.09;;;16.75;73.68
78667;BME280;67983;59.830;30.198;2023-07-02T01:39:04;99210.22;;;16.76;73.95
78667;BME280;67983;59.830;30.198;2023-07-02T01:41:41;99215.41;;;16.77;73.81
78667;BME280;67983;59.830;30.198;2023-07-02T01:44:09;99222.25;;;16.80;73.87
78667;BME280;67983;59.830;30.198;2023-07-02T01:46:37;99220.88;;;16.84;73.53
78667;BME280;67983;59.830;30.198;2023-07-02T01:49:04;99228.75;;;16.85;72.96
78667;BME280;67983;59.830;30.198;2023-07-02T01:51:32;99228.56;;;16.87;73.07
78667;BME280;67983;59.830;30.198;2023-07-02T01:54:00;99234.75;;;16.87;73.15
78667;BME280;67983;59.830;30.198;2023-07-02T01:56:29;99220.16;;;16.90;73.54
78667;BME280;67983;59.830;30.198;2023-07-02T01:58:56;99226.00;;;16.93;73.28
78667;BME280;67983;59.830;30.198;2023-07-02T02:01:23;99228.31;;;16.96;72.99
78667;BME280;67983;59.830;30.198;2023-07-02T02:03:50;99223.41;;;17.00;72.92
78667;BME280;67983;59.830;30.198;2023-07-02T02:06:17;99228.78;;;17.00;72.77
78667;BME280;67983;59.830;30.198;2023-07-02T02:08:46;99221.25;;;17.03;72.59
78667;BME280;67983;59.830;30.198;2023-07-02T02:11:14;99215.88;;;17.03;72.42
78667;BME280;67983;59.830;30.198;2023-07-02T02:13:43;99223.75;;;17.05;72.32
78667;BME280;67983;59.830;30.198;2023-07-02T02:16:10;99220.03;;;17.06;72.14
78667;BME280;67983;59.830;30.198;2023-07-02T02:18:37;99224.56;;;17.06;71.96
78667;BME280;67983;59.830;30.198;2023-07-02T02:21:04;99224.38;;;17.07;71.88
78667;BME280;67983;59.830;30.198;2023-07-02T02:23:32;99214.69;;;17.06;72.21
78667;BME280;67983;59.830;30.198;2023-07-02T02:26:00;99223.56;;;17.07;72.28
78667;BME280;67983;59.830;30.198;2023-07-02T02:28:27;99215.88;;;17.03;72.34
78667;BME280;67983;59.830;30.198;2023-07-02T02:30:55;99215.38;;;17.00;72.43
78667;BME280;67983;59.830;30.198;2023-07-02T02:33:23;99219.25;;;16.97;72.69
78667;BME280;67983;59.830;30.198;2023-07-02T02:35:50;99215.47;;;16.92;73.41
78667;BME280;67983;59.830;30.198;2023-07-02T02:38:19;99220.34;;;16.88;73.53
78667;BME280;67983;59.830;30.198;2023-07-02T02:40:47;99206.63;;;16.83;73.80
78667;BME280;67983;59.830;30.198;2023-07-02T02:43:17;99208.84;;;16.80;73.79
78667;BME280;67983;59.830;30.198;2023-07-02T02:45:45;99209.84;;;16.79;74.02
78667;BME280;67983;59.830;30.198;2023-07-02T02:48:14;99217.72;;;16.80;73.76
78667;BME280;67983;59.830;30.198;2023-07-02T02:50:43;99216.69;;;16.81;73.50
78667;BME280;67983;59.830;30.198;2023-07-02T02:53:10;99225.56;;;16.82;73.77
78667;BME280;67983;59.830;30.198;2023-07-02T02:55:37;99220.88;;;16.84;73.63
78667;BME280;67983;59.830;30.198;2023-07-02T02:58:04;99227.91;;;16.85;73.53
78667;BME280;67983;59.830;30.198;2023-07-02T03:00:31;99231.44;;;16.85;73.68
78667;BME280;67983;59.830;30.198;2023-07-02T03:02:59;99236.28;;;16.82;73.98
78667;BME280;67983;59.830;30.198;2023-07-02T03:05:27;99232.50;;;16.68;74.73
78667;BME280;67983;59.830;30.198;2023-07-02T03:07:57;99232.09;;;16.48;75.75
78667;BME280;67983;59.830;30.198;2023-07-02T03:10:23;99229.16;;;16.35;76.40
78667;BME280;67983;59.830;30.198;2023-07-02T03:12:50;99227.38;;;16.27;76.57
78667;BME280;67983;59.830;30.198;2023-07-02T03:15:17;99237.22;;;16.27;76.96
78667;BME280;67983;59.830;30.198;2023-07-02T03:17:44;99229.22;;;16.27;77.23
78667;BME280;67983;59.830;30.198;2023-07-02T03:20:11;99227.00;;;16.30;77.16
78667;BME280;67983;59.830;30.198;2023-07-02T03:22:42;99227.31;;;16.35;77.09
78667;BME280;67983;59.830;30.198;2023-07-02T03:25:09;99236.16;;;16.36;77.06
78667;BME280;67983;59.830;30.198;2023-07-02T03:27:36;99237.66;;;16.38;76.89
78667;BME280;67983;59.830;30.198;2023-07-02T03:30:04;99244.72;;;16.39;76.83
78667;BME280;67983;59.830;30.198;2023-07-02T03:32:31;99240.66;;;16.43;76.67
78667;BME280;67983;59.830;30.198;2023-07-02T03:35:01;99240.13;;;16.48;76.62
78667;BME280;67983;59.830;30.198;2023-07-02T03:37:28;99234.94;;;16.55;76.46
78667;BME280;67983;59.830;30.198;2023-07-02T03:39:56;99234.22;;;16.61;76.03
78667;BME280;67983;59.830;30.198;2023-07-02T03:42:25;99226.47;;;16.66;76.18
78667;BME280;67983;59.830;30.198;2023-07-02T03:44:51;99239.88;;;16.74;76.12
78667;BME280;67983;59.830;30.198;2023-07-02T03:47:18;99236.66;;;16.79;75.54
78667;BME280;67983;59.830;30.198;2023-07-02T03:49:47;99239.78;;;16.82;75.52
78667;BME280;67983;59.830;30.198;2023-07-02T03:52:14;99233.09;;;16.86;75.48
78667;BME280;67983;59.830;30.198;2023-07-02T03:54:41;99236.25;;;16.90;75.42
78667;BME280;67983;59.830;30.198;2023-07-02T03:57:09;99226.00;;;16.93;75.02
78667;BME280;67983;59.830;30.198;2023-07-02T03:59:36;99236.16;;;16.98;74.89
78667;BME280;67983;59.830;30.198;2023-07-02T04:02:04;99234.66;;;17.03;74.36
78667;BME280;67983;59.830;30.198;2023-07-02T04:04:33;99228.91;;;17.07;74.12
78667;BME280;67983;59.830;30.198;2023-07-02T04:07:00;99226.16;;;17.15;74.29
78667;BME280;67983;59.830;30.198;2023-07-02T04:09:27;99223.41;;;17.23;74.40
78667;BME280;67983;59.830;30.198;2023-07-02T04:11:56;99221.66;;;17.30;74.25
78667;BME280;67983;59.830;30.198;2023-07-02T04:14:24;99234.19;;;17.38;73.92
78667;BME280;67983;59.830;30.198;2023-07-02T04:16:52;99227.91;;;17.45;73.47
78667;BME280;67983;59.830;30.198;2023-07-02T04:19:20;99232.38;;;17.53;73.34
78667;BME280;67983;59.830;30.198;2023-07-02T04:21:47;99232.66;;;17.58;73.37
78667;BME280;67983;59.830;30.198;2023-07-02T04:24:14;99225.94;;;17.62;73.26
78667;BME280;67983;59.830;30.198;2023-07-02T04:26:41;99228.25;;;17.65;73.25
78667;BME280;67983;59.830;30.198;2023-07-02T04:29:10;99236.28;;;17.65;73.30
78667;BME280;67983;59.830;30.198;2023-07-02T04:31:39;99235.16;;;17.59;73.50
78667;BME280;67983;59.830;30.198;2023-07-02T04:34:09;99233.84;;;17.55;73.44
78667;BME280;67983;59.830;30.198;2023-07-02T04:36:36;99243.94;;;17.53;73.34
78667;BME280;67983;59.830;30.198;2023-07-02T04:39:02;99236.34;;;17.57;73.91
78667;BME280;67983;59.830;30.198;2023-07-02T04:41:29;99247.84;;;17.66;73.88
78667;BME280;67983;59.830;30.198;2023-07-02T04:43:58;99237.25;;;17.72;73.54
78667;BME280;67983;59.830;30.198;2023-07-02T04:46:25;99250.78;;;17.79;73.54
78667;BME280;67983;59.830;30.198;2023-07-02T04:48:54;99239.47;;;17.83;73.47
78667;BME280;67983;59.830;30.198;2023-07-02T04:51:21;99249.66;;;17.88;73.05
78667;BME280;67983;59.830;30.198;2023-07-02T04:53:48;99254.94;;;17.96;73.28
78667;BME280;67983;59.830;30.198;2023-07-02T04:56:15;99247.28;;;18.08;73.24
78667;BME280;67983;59.830;30.198;2023-07-02T04:58:42;99253.16;;;18.18;72.80
78667;BME280;67983;59.830;30.198;2023-07-02T05:01:10;99260.03;;;18.20;72.06
78667;BME280;67983;59.830;30.198;2023-07-02T05:03:38;99258.34;;;18.19;72.13
78667;BME280;67983;59.830;30.198;2023-07-02T05:06:07;99262.34;;;18.24;72.26
78667;BME280;67983;59.830;30.198;2023-07-02T05:08:34;99261.41;;;18.31;72.23
78667;BME280;67983;59.830;30.198;2023-07-02T05:11:02;99255.75;;;18.41;71.75
78667;BME280;67983;59.830;30.198;2023-07-02T05:13:29;99264.72;;;18.48;71.42
78667;BME280;67983;59.830;30.198;2023-07-02T05:15:58;99265.06;;;18.60;71.55
78667;BME280;67983;59.830;30.198;2023-07-02T05:18:27;99260.91;;;18.72;71.62
78667;BME280;67983;59.830;30.198;2023-07-02T05:20:55;99265.78;;;18.83;71.03
78667;BME280;67983;59.830;30.198;2023-07-02T05:23:23;99272.91;;;18.91;71.58
78667;BME280;67983;59.830;30.198;2023-07-02T05:25:50;99275.31;;;19.00;70.81
78667;BME280;67983;59.830;30.198;2023-07-02T05:28:18;99271.00;;;19.06;69.94
78667;BME280;67983;59.830;30.198;2023-07-02T05:30:45;99272.72;;;19.14;70.13
78667;BME280;67983;59.830;30.198;2023-07-02T05:33:14;99282.72;;;19.20;70.07
78667;BME280;67983;59.830;30.198;2023-07-02T05:35:40;99285.22;;;19.21;69.67
78667;BME280;67983;59.830;30.198;2023-07-02T05:38:07;99277.41;;;19.26;69.67
78667;BME280;67983;59.830;30.198;2023-07-02T05:40:36;99273.13;;;19.32;69.22
78667;BME280;67983;59.830;30.198;2023-07-02T05:43:03;99274.16;;;19.31;68.97
78667;BME280;67983;59.830;30.198;2023-07-02T05:45:31;99266.72;;;19.33;68.44
78667;BME280;67983;59.830;30.198;2023-07-02T05:47:58;99269.25;;;19.41;68.28
78667;BME280;67983;59.830;30.198;2023-07-02T05:50:25;99270.03;;;19.56;69.36
78667;BME280;67983;59.830;30.198;2023-07-02T05:52:52;99278.88;;;19.72;68.23
78667;BME280;67983;59.830;30.198;2023-07-02T05:55:19;99264.25;;;19.81;68.38
78667;BME280;67983;59.830;30.198;2023-07-02T05:57:48;99270.09;;;19.91;67.46
78667;BME280;67983;59.830;30.198;2023-07-02T06:00:16;99274.50;;;19.98;66.04
78667;BME280;67983;59.830;30.198;2023-07-02T06:02:46;99274.53;;;20.05;66.33
78667;BME280;67983;59.830;30.198;2023-07-02T06:05:14;99275.19;;;20.07;65.33
78667;BME280;67983;59.830;30.198;2023-07-02T06:07:41;99261.72;;;20.07;65.32
78667;BME280;67983;59.830;30.198;2023-07-02T06:10:09;99280.59;;;20.14;65.10
78667;BME280;67983;59.830;30.198;2023-07-02T06:12:37;99274.03;;;20.23;64.96
78667;BME280;67983;59.830;30.198;2023-07-02T06:15:06;99279.31;;;20.38;64.01
78667;BME280;67983;59.830;30.198;2023-07-02T06:17:33;99283.72;;;20.52;63.59
78667;BME280;67983;59.830;30.198;2023-07-02T06:20:02;99284.59;;;20.59;63.51
78667;BME280;67983;59.830;30.198;2023-07-02T06:22:30;99288.56;;;20.63;62.86
78667;BME280;67983;59.830;30.198;2023-07-02T06:24:58;99278.03;;;20.68;61.74
78667;BME280;67983;59.830;30.198;2023-07-02T06:27:26;99276.38;;;20.74;62.32
78667;BME280;67983;59.830;30.198;2023-07-02T06:29:53;99280.13;;;20.79;62.03
78667;BME280;67983;59.830;30.198;2023-07-02T06:32:21;99288.00;;;20.81;61.76
78667;BME280;67983;59.830;30.198;2023-07-02T06:34:48;99288.63;;;20.76;59.96
78667;BME280;67983;59.830;30.198;2023-07-02T06:37:15;99285.91;;;20.76;60.25
78667;BME280;67983;59.830;30.198;2023-07-02T06:39:41;99283.66;;;20.80;60.13
78667;BME280;67983;59.830;30.198;2023-07-02T06:42:09;99286.81;;;20.90;59.35
78667;BME280;67983;59.830;30.198;2023-07-02T06:44:38;99286.38;;;20.93;59.08
78667;BME280;67983;59.830;30.198;2023-07-02T06:47:05;99280.41;;;21.04;59.51
78667;BME280;67983;59.830;30.198;2023-07-02T06:49:33;99290.19;;;21.18;59.16
78667;BME280;67983;59.830;30.198;2023-07-02T06:52:00;99304.56;;;21.32;58.80
78667;BME280;67983;59.830;30.198;2023-07-02T06:54:28;99299.38;;;21.37;57.98
78667;BME280;67983;59.830;30.198;2023-07-02T06:56:57;99293.56;;;21.40;57.78
78667;BME280;67983;59.830;30.198;2023-07-02T06:59:26;99306.03;;;21.41;57.39
78667;BME280;67983;59.830;30.198;2023-07-02T07:01:53;99289.44;;;21.44;56.80
78667;BME280;67983;59.830;30.198;2023-07-02T07:04:20;99295.25;;;21.48;56.86
78667;BME280;67983;59.830;30.198;2023-07-02T07:06:48;99295.25;;;21.55;57.67
78667;BME280;67983;59.830;30.198;2023-07-02T07:09:17;99311.03;;;21.71;57.36
78667;BME280;67983;59.830;30.198;2023-07-02T07:11:45;99298.16;;;21.66;56.41
78667;BME280;67983;59.830;30.198;2023-07-02T07:14:14;99298.16;;;21.66;55.75
78667;BME280;67983;59.830;30.198;2023-07-02T07:16:41;99307.72;;;21.69;56.14
78667;BME280;67983;59.830;30.198;2023-07-02T07:19:08;99297.53;;;21.64;55.47
78667;BME280;67983;59.830;30.198;2023-07-02T07:21:35;99303.16;;;21.76;55.40
78667;BME280;67983;59.830;30.198;2023-07-02T07:24:03;99300.66;;;21.81;55.16
78667;BME280;67983;59.830;30.198;2023-07-02T07:26:32;99311.44;;;21.88;54.58
78667;BME280;67983;59.830;30.198;2023-07-02T07:28:59;99301.47;;;21.88;54.63
78667;BME280;67983;59.830;30.198;2023-07-02T07:31:26;99308.53;;;21.89;54.70
78667;BME280;67983;59.830;30.198;2023-07-02T07:33:54;99311.66;;;21.86;54.98
78667;BME280;67983;59.830;30.198;2023-07-02T07:36:21;99303.97;;;21.83;55.29
78667;BME280;67983;59.830;30.198;2023-07-02T07:38:48;99311.44;;;21.88;53.37
78667;BME280;67983;59.830;30.198;2023-07-02T07:41:18;99304.19;;;22.08;53.86
78667;BME280;67983;59.830;30.198;2023-07-02T07:43:46;99309.34;;;22.29;53.14
78667;BME280;67983;59.830;30.198;2023-07-02T07:46:12;99309.97;;;22.31;52.57
78667;BME280;67983;59.830;30.198;2023-07-02T07:48:39;99314.53;;;22.38;52.30
78667;BME280;67983;59.830;30.198;2023-07-02T07:51:06;99318.06;;;22.38;51.94
78667;BME280;67983;59.830;30.198;2023-07-02T07:53:33;99311.59;;;22.46;51.89
78667;BME280;67983;59.830;30.198;2023-07-02T07:56:06;99326.13;;;22.58;51.99
78667;BME280;67983;59.830;30.198;2023-07-02T07:58:34;99308.19;;;22.63;51.73
78667;BME280;67983;59.830;30.198;2023-07-02T08:01:01;99324.16;;;22.78;52.20
78667;BME280;67983;59.830;30.198;2023-07-02T08:03:28;99323.13;;;22.86;51.24
78667;BME280;67983;59.830;30.198;2023-07-02T08:05:56;99319.59;;;22.85;50.44
78667;BME280;67983;59.830;30.198;2023-07-02T08:08:25;99328.28;;;23.01;51.26
78667;BME280;67983;59.830;30.198;2023-07-02T08:10:52;99334.84;;;23.18;50.33
78667;BME280;67983;59.830;30.198;2023-07-02T08:13:18;99335.63;;;23.25;49.28
78667;BME280;67983;59.830;30.198;2023-07-02T08:15:49;99338.97;;;23.20;48.83
78667;BME280;67983;59.830;30.198;2023-07-02T08:18:16;99327.97;;;23.15;48.29
78667;BME280;67983;59.830;30.198;2023-07-02T08:20:44;99335.06;;;23.10;47.62
78667;BME280;67983;59.830;30.198;2023-07-02T08:23:11;99337.38;;;23.06;46.65
78667;BME280;67983;59.830;30.198;2023-07-02T08:25:40;99331.59;;;23.03;47.96
78667;BME280;67983;59.830;30.198;2023-07-02T08:28:07;99336.09;;;23.15;47.77
78667;BME280;67983;59.830;30.198;2023-07-02T08:30:34;99323.56;;;23.21;47.01
78667;BME280;67983;59.830;30.198;2023-07-02T08:33:02;99319.00;;;23.21;47.73
78667;BME280;67983;59.830;30.198;2023-07-02T08:35:30;99331.63;;;23.34;48.46
78667;BME280;67983;59.830;30.198;2023-07-02T08:37:59;99332.97;;;23.50;48.65
78667;BME280;67983;59.830;30.198;2023-07-02T08:40:26;99331.69;;;23.59;47.63
78667;BME280;67983;59.830;30.198;2023-07-02T08:42:55;99339.38;;;23.62;46.13
78667;BME280;67983;59.830;30.198;2023-07-02T08:45:25;99329.97;;;23.65;45.91
78667;BME280;67983;59.830;30.198;2023-07-02T08:47:53;99339.69;;;23.72;46.22
78667;BME280;67983;59.830;30.198;2023-07-02T08:50:24;99339.88;;;23.77;45.79
78667;BME280;67983;59.830;30.198;2023-07-02T08:52:57;99336.03;;;23.92;45.70
78667;BME280;67983;59.830;30.198;2023-07-02T08:55:24;99334.44;;;24.02;45.83
78667;BME280;67983;59.830;30.198;2023-07-02T08:57:54;99335.13;;;24.23;46.33
78667;BME280;67983;59.830;30.198;2023-07-02T09:00:21;99327.72;;;24.36;45.83
78667;BME280;67983;59.830;30.198;2023-07-02T09:02:51;99331.53;;;24.47;44.40
78667;BME280;67983;59.830;30.198;2023-07-02T09:05:54;99330.94;;;24.45;44.00
78667;BME280;67983;59.830;30.198;2023-07-02T09:08:24;99331.53;;;24.47;43.70
78667;BME280;67983;59.830;30.198;2023-07-02T09:10:52;99326.19;;;24.59;44.48
78667;BME280;67983;59.830;30.198;2023-07-02T09:13:19;99323.09;;;24.73;43.43
78667;BME280;67983;59.830;30.198;2023-07-02T09:15:46;99329.66;;;24.84;42.78
78667;BME280;67983;59.830;30.198;2023-07-02T09:18:17;99314.47;;;24.95;42.52
78667;BME280;67983;59.830;30.198;2023-07-02T09:20:45;99314.34;;;24.90;41.75
78667;BME280;67983;59.830;30.198;2023-07-02T09:23:13;99321.56;;;24.96;41.91
78667;BME280;67983;59.830;30.198;2023-07-02T09:25:40;99307.78;;;24.97;41.64
78667;BME280;67983;59.830;30.198;2023-07-02T09:28:15;99323.19;;;25.03;41.25
78667;BME280;67983;59.830;30.198;2023-07-02T09:30:52;99319.16;;;25.06;40.77
78667;BME280;67983;59.830;30.198;2023-07-02T09:33:24;99322.25;;;25.10;39.92
78667;BME280;67983;59.830;30.198;2023-07-02T09:35:51;99319.63;;;25.03;39.45
78667;BME280;67983;59.830;30.198;2023-07-02T09:38:21;99322.94;;;25.05;39.20
78667;BME280;67983;59.830;30.198;2023-07-02T09:40:50;99302.94;;;25.18;39.08
78667;BME280;67983;59.830;30.198;2023-07-02T09:43:18;99315.75;;;25.41;39.25
78667;BME280;67983;59.830;30.198;2023-07-02T09:45:47;99304.56;;;25.49;38.16
